Time;durP1;ratioP1;P1;durP2;ratioP2;P2;SDS_P1;SDS_P2;PMS_P1;PMS_P2;Temp;Humidity;BMP_temperature;BMP_pressure;BME280_temperature;BME280_humidity;BME280_pressure;Samples;Min_cycle;Max_cycle;Signal;HPM_P1;HPM_P2
2022/04/21 00:01:34;;;;;;;15.93;10.95;;;24.10;99.90;;;;;;5092259;28;20066;-52
2022/04/21 00:04:00;;;;;;;14.93;11.00;;;24.10;99.90;;;;;;5093597;28;20451;-52
2022/04/21 00:06:26;;;;;;;14.80;11.00;;;24.10;99.90;;;;;;5094084;28;20093;-52
2022/04/21 00:08:52;;;;;;;16.95;10.88;;;24.10;99.90;;;;;;5093870;28;20027;-52
2022/04/21 00:11:17;;;;;;;14.35;10.80;;;24.10;99.90;;;;;;5078383;28;20028;-52
2022/04/21 00:13:43;;;;;;;15.25;10.07;;;24.10;99.90;;;;;;5073546;28;20035;-52
2022/04/21 00:16:09;;;;;;;15.18;10.10;;;24.10;99.90;;;;;;5073546;28;20387;-52
2022/04/21 00:18:34;;;;;;;15.73;9.35;;;24.10;99.90;;;;;;5082047;28;20023;-53
2022/04/21 00:21:01;;;;;;;15.05;10.35;;;24.10;99.90;;;;;;5081449;28;20075;-53
2022/04/21 00:23:28;;;;;;;14.98;10.48;;;24.10;99.90;;;;;;5073513;28;20425;-54
2022/04/21 00:26:00;;;;;;;13.50;9.57;;;24.10;99.90;;;;;;5073010;28;20052;-54
2022/04/21 00:28:28;;;;;;;14.88;10.70;;;24.10;99.90;;;;;;5073392;28;20028;-53
2022/04/21 00:30:55;;;;;;;14.60;9.55;;;24.10;99.90;;;;;;5073279;28;20021;-54
2022/04/21 00:33:21;;;;;;;13.15;9.77;;;24.10;99.90;;;;;;5072772;28;20077;-54
2022/04/21 00:35:47;;;;;;;13.95;9.63;;;24.00;99.90;;;;;;5073038;28;20021;-52
2022/04/21 00:38:13;;;;;;;14.07;9.32;;;24.10;99.90;;;;;;5073066;28;20026;-51
2022/04/21 00:40:39;;;;;;;15.20;9.23;;;24.00;99.90;;;;;;5072563;28;20032;-54
2022/04/21 00:43:05;;;;;;;14.82;10.52;;;24.10;99.90;;;;;;5072970;28;20047;-52
2022/04/21 00:45:32;;;;;;;13.13;8.45;;;24.10;99.90;;;;;;5072853;28;20031;-52
2022/04/21 00:47:58;;;;;;;13.63;9.93;;;24.00;99.90;;;;;;5076275;28;20023;-53
2022/04/21 00:50:28;;;;;;;15.63;9.30;;;24.00;99.90;;;;;;5093202;28;20062;-53
2022/04/21 00:52:55;;;;;;;13.93;8.60;;;24.00;99.90;;;;;;5092979;28;20127;-58
2022/04/21 00:55:22;;;;;;;15.27;9.15;;;24.00;99.90;;;;;;5092587;28;20056;-53
2022/04/21 00:57:50;;;;;;;12.60;8.73;;;24.00;99.90;;;;;;5092895;28;20452;-51
2022/04/21 01:00:17;;;;;;;12.43;8.25;;;24.00;99.90;;;;;;5073873;28;20123;-52
2022/04/21 01:02:46;;;;;;;12.63;9.20;;;24.00;99.90;;;;;;5061235;28;20307;-52
2022/04/21 01:05:30;;;;;;;12.10;8.65;;;24.00;99.90;;;;;;5082568;28;20055;-51
2022/04/21 01:08:07;;;;;;;11.65;8.35;;;24.00;99.90;;;;;;5092904;28;20472;-50
2022/04/21 01:10:35;;;;;;;11.27;8.40;;;24.00;99.90;;;;;;5092417;28;20028;-52
2022/04/21 01:13:05;;;;;;;11.75;8.55;;;24.00;99.90;;;;;;5092650;28;20020;-50
2022/04/21 01:15:30;;;;;;;11.05;7.97;;;24.00;99.90;;;;;;5092446;28;20035;-51
2022/04/21 01:17:56;;;;;;;11.15;8.43;;;24.00;99.90;;;;;;5088766;28;20020;-52
2022/04/21 01:20:23;;;;;;;10.32;7.22;;;24.00;99.90;;;;;;5069494;28;20035;-52
2022/04/21 01:22:50;;;;;;;13.50;8.43;;;24.00;99.90;;;;;;5081667;28;20534;-52
2022/04/21 01:25:16;;;;;;;11.60;8.03;;;24.00;99.90;;;;;;5070518;28;20032;-52
2022/04/21 01:27:43;;;;;;;12.95;8.60;;;24.00;99.90;;;;;;5057920;28;20779;-53
2022/04/21 01:30:11;;;;;;;10.87;8.03;;;24.00;99.90;;;;;;5053191;28;20037;-52
2022/04/21 01:32:37;;;;;;;12.65;6.80;;;24.00;99.90;;;;;;5085040;28;20774;-52
2022/04/21 01:35:07;;;;;;;11.48;7.15;;;24.00;99.90;;;;;;5091358;28;20484;-52
2022/04/21 01:43:03;;;;;;;11.82;6.90;;;24.00;99.90;;;;;;5091906;28;20127;-52
2022/04/21 01:45:29;;;;;;;10.20;7.18;;;24.00;99.90;;;;;;5092173;28;20051;-51
2022/04/21 01:47:56;;;;;;;10.25;7.45;;;24.00;99.90;;;;;;5088589;28;20044;-52
2022/04/21 01:50:25;;;;;;;9.77;6.85;;;24.00;99.90;;;;;;5072646;28;20032;-53
2022/04/21 01:52:52;;;;;;;9.32;6.80;;;23.90;99.90;;;;;;5079106;28;20036;-52
2022/04/21 01:55:19;;;;;;;12.27;6.90;;;23.90;99.90;;;;;;5091496;28;20043;-52
2022/04/21 01:57:45;;;;;;;9.27;6.78;;;24.00;99.90;;;;;;5092100;28;20043;-52
2022/04/21 02:00:12;;;;;;;9.98;6.85;;;24.00;99.90;;;;;;5090744;22;20049;-53
2022/04/21 02:02:37;;;;;;;10.00;6.65;;;24.00;99.90;;;;;;5049651;28;20112;-50
2022/04/21 02:05:04;;;;;;;10.00;6.50;;;24.00;99.90;;;;;;5051346;28;20116;-51
2022/04/21 02:07:30;;;;;;;10.55;6.75;;;23.90;99.90;;;;;;5050894;28;20037;-53
2022/04/21 02:09:56;;;;;;;8.05;6.05;;;24.00;99.90;;;;;;5051183;28;20025;-53
2022/04/21 02:12:23;;;;;;;10.63;6.32;;;24.00;99.90;;;;;;5049051;28;20021;-56
2022/04/21 02:14:49;;;;;;;8.55;6.45;;;24.00;99.90;;;;;;5062777;28;20065;-55
2022/04/21 02:17:15;;;;;;;10.00;6.38;;;24.00;99.90;;;;;;5071179;28;20044;-54
2022/04/21 02:19:41;;;;;;;8.95;6.47;;;23.90;99.90;;;;;;5070333;28;20622;-54
2022/04/21 02:22:07;;;;;;;8.57;6.20;;;23.90;99.90;;;;;;5062984;28;20035;-53
2022/04/21 02:24:33;;;;;;;8.25;5.68;;;23.90;99.90;;;;;;5050431;28;20109;-51
2022/04/21 02:26:59;;;;;;;9.40;6.55;;;23.90;99.90;;;;;;5050767;28;20104;-51
2022/04/21 02:29:25;;;;;;;8.15;5.43;;;23.90;99.90;;;;;;5051013;28;20036;-51
2022/04/21 02:31:50;;;;;;;8.10;5.45;;;23.90;99.90;;;;;;5045251;28;20498;-51
2022/04/21 02:34:16;;;;;;;8.43;5.47;;;23.90;99.90;;;;;;5045880;28;20029;-51
2022/04/21 02:36:42;;;;;;;8.32;5.63;;;23.90;99.90;;;;;;5034334;28;20026;-50
2022/04/21 02:39:08;;;;;;;7.57;5.80;;;23.90;99.90;;;;;;5029144;28;20064;-50
2022/04/21 02:41:33;;;;;;;8.25;5.78;;;23.90;99.90;;;;;;5030973;28;20026;-49
2022/04/21 02:43:59;;;;;;;7.50;5.25;;;23.90;99.90;;;;;;5031315;28;20493;-52
2022/04/21 02:46:29;;;;;;;7.95;5.45;;;23.90;99.90;;;;;;5029970;28;20030;-52
2022/04/21 02:48:56;;;;;;;9.35;6.25;;;23.80;99.90;;;;;;5029221;28;20029;-49
2022/04/21 02:51:22;;;;;;;8.25;5.78;;;23.80;99.90;;;;;;5028948;28;20048;-49
2022/04/21 02:59:17;;;;;;;9.82;6.35;;;23.80;99.90;;;;;;5066081;28;20457;-50
2022/04/21 03:01:43;;;;;;;7.95;5.75;;;23.80;99.90;;;;;;5030488;28;20120;-50
2022/04/21 03:04:09;;;;;;;7.93;6.00;;;23.80;99.90;;;;;;5040514;28;20021;-50
2022/04/21 03:06:34;;;;;;;11.38;6.25;;;23.70;99.90;;;;;;5029343;28;20022;-49
2022/04/21 03:09:00;;;;;;;13.48;6.95;;;23.70;99.90;;;;;;5029418;28;20184;-58
2022/04/21 03:11:26;;;;;;;9.95;7.22;;;23.70;99.90;;;;;;5029454;28;20488;-50
2022/04/21 03:13:51;;;;;;;8.00;5.63;;;23.70;99.90;;;;;;5029878;28;20535;-49
2022/04/21 03:16:18;;;;;;;8.13;5.30;;;23.70;99.90;;;;;;5031114;28;20500;-49
2022/04/21 03:18:43;;;;;;;8.40;5.72;;;23.70;99.90;;;;;;5032952;28;20108;-50
2022/04/21 03:26:38;;;;;;;8.00;5.43;;;23.70;99.90;;;;;;5074664;28;20046;-51
2022/04/21 03:29:03;;;;;;;7.68;5.47;;;23.70;99.90;;;;;;5074283;28;20111;-51
2022/04/21 03:31:29;;;;;;;7.45;4.90;;;23.70;99.90;;;;;;5071624;28;20040;-51
2022/04/21 03:33:55;;;;;;;6.30;4.88;;;23.70;99.90;;;;;;5074204;28;20023;-51
2022/04/21 03:36:21;;;;;;;7.88;5.50;;;23.70;99.90;;;;;;5074390;28;20361;-51
2022/04/21 03:38:47;;;;;;;6.95;4.57;;;23.70;99.90;;;;;;5074363;28;20029;-51
2022/04/21 03:41:13;;;;;;;7.07;4.45;;;23.70;99.90;;;;;;5074093;28;20028;-51
2022/04/21 03:43:39;;;;;;;5.78;4.38;;;23.60;99.90;;;;;;5074160;28;20021;-51
2022/04/21 03:46:05;;;;;;;7.00;4.90;;;23.60;99.90;;;;;;5073967;28;20035;-51
2022/04/21 03:48:31;;;;;;;7.65;4.63;;;23.60;99.90;;;;;;5074007;28;20438;-51
2022/04/21 03:50:57;;;;;;;6.28;4.35;;;23.60;99.90;;;;;;5073989;28;20472;-50
2022/04/21 03:53:22;;;;;;;7.30;4.00;;;23.60;99.90;;;;;;5073990;28;20197;-50
2022/04/21 03:55:49;;;;;;;7.30;4.32;;;23.60;99.90;;;;;;5073950;28;20357;-49
2022/04/21 03:58:14;;;;;;;6.10;3.97;;;23.60;99.90;;;;;;5073742;28;20082;-49
2022/04/21 04:00:40;;;;;;;4.88;3.67;;;23.60;99.90;;;;;;5072744;28;20049;-49
2022/04/21 04:03:06;;;;;;;6.63;4.10;;;23.60;99.90;;;;;;5073599;28;20028;-50
2022/04/21 04:05:32;;;;;;;6.13;4.10;;;23.60;99.90;;;;;;5073522;28;20044;-51
2022/04/21 04:10:52;;;;;;;6.80;4.00;;;23.60;99.90;;;;;;5073329;28;20435;-49
2022/04/21 04:13:23;;;;;;;8.00;4.13;;;23.50;99.90;;;;;;5073480;28;20077;-49
2022/04/21 04:15:51;;;;;;;7.22;4.28;;;23.50;99.90;;;;;;5073663;28;20094;-49
2022/04/21 04:18:21;;;;;;;6.10;3.90;;;23.50;99.90;;;;;;5073473;28;20082;-49
2022/04/21 04:20:47;;;;;;;6.40;4.20;;;23.50;99.90;;;;;;5073297;28;20451;-49
2022/04/21 04:23:17;;;;;;;9.35;4.75;;;23.50;99.90;;;;;;5073295;28;20551;-49
2022/04/21 04:25:43;;;;;;;6.65;4.43;;;23.50;99.90;;;;;;5073286;28;20031;-49
2022/04/21 04:28:08;;;;;;;8.70;4.75;;;23.50;99.90;;;;;;5073114;28;20091;-49
2022/04/21 04:30:34;;;;;;;8.40;4.70;;;23.50;99.90;;;;;;5072637;28;20050;-49
2022/04/21 04:33:00;;;;;;;9.57;4.93;;;23.50;99.90;;;;;;5053219;28;20072;-49
2022/04/21 04:35:27;;;;;;;6.47;4.22;;;23.50;99.90;;;;;;5053034;28;20033;-49
2022/04/21 04:37:53;;;;;;;6.80;4.20;;;23.50;99.90;;;;;;5053156;28;20025;-49
2022/04/21 04:40:19;;;;;;;6.75;4.55;;;23.50;99.90;;;;;;5063455;28;20047;-49
2022/04/21 04:42:45;;;;;;;6.18;4.20;;;23.50;99.90;;;;;;5072919;28;20094;-50
2022/04/21 04:47:55;;;;;;;6.15;4.35;;;23.50;99.90;;;;;;5072836;28;20386;-50
2022/04/21 04:50:21;;;;;;;6.40;4.47;;;23.50;99.90;;;;;;5072903;28;20468;-50
2022/04/21 04:52:47;;;;;;;6.93;4.72;;;23.40;99.90;;;;;;5072776;28;20024;-50
2022/04/21 04:55:13;;;;;;;6.05;4.00;;;23.40;99.90;;;;;;5072609;28;20541;-50
2022/04/21 04:57:39;;;;;;;5.70;4.45;;;23.40;99.90;;;;;;5072717;28;20020;-49
2022/04/21 05:00:10;;;;;;;8.07;4.90;;;23.40;99.90;;;;;;5072514;28;20381;-50
2022/04/21 05:02:36;;;;;;;7.97;4.93;;;23.40;99.90;;;;;;5072412;28;20024;-49
2022/04/21 05:05:02;;;;;;;6.47;4.53;;;23.40;99.90;;;;;;5072515;28;20023;-52
2022/04/21 05:07:27;;;;;;;9.32;4.57;;;23.40;99.90;;;;;;5072240;28;20032;-50
2022/04/21 05:09:53;;;;;;;6.60;4.95;;;23.40;99.90;;;;;;5060933;28;20032;-50
2022/04/21 05:12:20;;;;;;;8.10;4.88;;;23.40;99.90;;;;;;5052291;28;20029;-50
2022/04/21 05:14:46;;;;;;;10.82;5.55;;;23.40;99.90;;;;;;5052211;28;20025;-50
2022/04/21 05:17:12;;;;;;;8.43;5.07;;;23.40;99.90;;;;;;5052226;28;20075;-49
2022/04/21 05:19:38;;;;;;;8.20;4.93;;;23.40;99.90;;;;;;5052009;28;20041;-49
2022/04/21 05:22:04;;;;;;;7.68;4.95;;;23.40;99.90;;;;;;5051944;28;20021;-49
2022/04/21 05:24:31;;;;;;;6.25;4.50;;;23.40;99.90;;;;;;5052037;28;20036;-50
2022/04/21 05:26:58;;;;;;;7.93;4.75;;;23.40;99.90;;;;;;5052231;28;20033;-49
2022/04/21 05:32:09;;;;;;;6.57;4.70;;;23.40;99.90;;;;;;5052274;28;20090;-50
2022/04/21 05:34:35;;;;;;;6.27;4.40;;;23.40;99.90;;;;;;5051940;28;20028;-51
2022/04/21 05:37:02;;;;;;;6.80;4.68;;;23.40;99.90;;;;;;5051942;28;20083;-51
2022/04/21 05:39:29;;;;;;;7.50;4.65;;;23.30;99.90;;;;;;5056797;28;20377;-50
2022/04/21 05:41:57;;;;;;;7.30;4.97;;;23.30;99.90;;;;;;5071172;28;20029;-49
2022/04/21 05:44:24;;;;;;;7.82;4.75;;;23.30;99.90;;;;;;5071955;28;20020;-50
2022/04/21 05:46:50;;;;;;;5.63;4.25;;;23.30;99.90;;;;;;5071597;28;20028;-49
2022/04/21 05:49:17;;;;;;;6.50;4.70;;;23.30;99.90;;;;;;5070082;28;20464;-49
2022/04/21 05:51:46;;;;;;;6.43;4.15;;;23.30;99.90;;;;;;5071405;28;20028;-49
2022/04/21 05:54:14;;;;;;;7.03;4.97;;;23.30;99.90;;;;;;5071211;28;20063;-50
2022/04/21 05:56:40;;;;;;;6.00;4.38;;;23.30;99.90;;;;;;5071509;28;20024;-49
2022/04/21 05:59:05;;;;;;;7.70;4.70;;;23.30;99.90;;;;;;5071380;28;20028;-49
2022/04/21 06:01:31;;;;;;;7.68;4.68;;;23.30;99.90;;;;;;5071175;28;20048;-47
2022/04/21 06:03:58;;;;;;;6.70;4.32;;;23.30;99.90;;;;;;5071521;28;20061;-49
2022/04/21 06:06:23;;;;;;;6.13;4.80;;;23.30;99.90;;;;;;5071192;28;20498;-49
2022/04/21 06:08:49;;;;;;;7.93;4.70;;;23.30;99.90;;;;;;5070217;28;20028;-50
2022/04/21 06:11:15;;;;;;;6.38;4.40;;;23.30;99.90;;;;;;5070362;28;20111;-50
2022/04/21 06:13:42;;;;;;;7.68;4.22;;;23.30;99.90;;;;;;5071097;28;20024;-49
2022/04/21 06:16:09;;;;;;;5.95;4.00;;;23.30;99.90;;;;;;5053189;28;20038;-49
2022/04/21 06:18:38;;;;;;;6.95;4.30;;;23.30;99.90;;;;;;5071135;28;20090;-49
2022/04/21 06:21:05;;;;;;;6.32;4.10;;;23.30;99.90;;;;;;5071339;28;20076;-49
2022/04/21 06:23:31;;;;;;;;;;;23.30;99.90;;;;;;5071443;28;20024;-49
2022/04/21 06:26:00;;;;;;;6.47;3.83;;;23.30;99.90;;;;;;5069740;28;19904;-49
2022/04/21 06:28:27;;;;;;;7.13;3.97;;;23.30;99.90;;;;;;5066712;28;20115;-49
2022/04/21 06:30:53;;;;;;;6.57;4.10;;;23.30;99.90;;;;;;5071028;28;20024;-49
2022/04/21 06:33:19;;;;;;;5.35;3.92;;;23.30;99.90;;;;;;5070875;28;20078;-51
2022/04/21 06:35:45;;;;;;;6.75;4.10;;;23.30;99.90;;;;;;5070819;28;20032;-51
2022/04/21 06:38:12;;;;;;;7.28;4.10;;;23.30;99.90;;;;;;5070889;28;20021;-49
2022/04/21 06:40:38;;;;;;;3.80;3.20;;;23.30;99.90;;;;;;5070891;28;20135;-49
2022/04/21 06:48:01;;;;;;;5.57;3.65;;;23.30;99.90;;;;;;5070897;28;20468;-50
2022/04/21 06:48:36;;;;;;;4.55;3.50;;;23.30;99.90;;;;;;5071158;28;20706;-50
2022/04/21 06:51:02;;;;;;;4.75;3.08;;;23.30;99.90;;;;;;5070710;28;20434;-50
2022/04/21 06:53:30;;;;;;;4.90;3.50;;;23.30;99.90;;;;;;5074609;28;20055;-50
2022/04/21 06:55:56;;;;;;;4.82;3.05;;;23.30;99.90;;;;;;5056921;28;20396;-50
2022/04/21 06:58:21;;;;;;;5.68;3.28;;;23.30;99.90;;;;;;5066198;28;20037;-49
2022/04/21 07:00:48;;;;;;;6.03;3.20;;;23.30;99.90;;;;;;5054650;28;20053;-50
2022/04/21 07:03:13;;;;;;;6.32;3.30;;;23.30;99.90;;;;;;5055022;28;20024;-50
2022/04/21 07:05:39;;;;;;;6.88;2.80;;;23.30;99.90;;;;;;5054789;28;20025;-51
2022/04/21 07:08:07;;;;;;;4.97;3.03;;;23.30;99.90;;;;;;5036300;28;20499;-50
2022/04/21 07:10:33;;;;;;;;;;;23.30;99.90;;;;;;5055121;28;20389;-50
2022/04/21 07:12:59;;;;;;;5.65;2.75;;;23.30;99.90;;;;;;5037006;28;19904;-51
2022/04/21 07:15:25;;;;;;;6.47;2.92;;;23.30;99.90;;;;;;5054549;28;20471;-50
2022/04/21 07:17:52;;;;;;;4.68;2.60;;;23.30;99.90;;;;;;5036565;28;20111;-50
2022/04/21 07:20:18;;;;;;;5.30;3.30;;;23.30;99.90;;;;;;5054374;28;20473;-50
2022/04/21 07:22:44;;;;;;;4.43;3.00;;;23.30;99.90;;;;;;5054342;28;20025;-50
2022/04/21 07:25:09;;;;;;;4.72;2.75;;;23.30;99.90;;;;;;5054240;28;20504;-50
2022/04/21 07:27:37;;;;;;;4.75;2.55;;;23.30;99.90;;;;;;5037730;28;20032;-50
2022/04/21 07:30:04;;;;;;;6.35;3.00;;;23.30;99.90;;;;;;5074618;28;20536;-50
2022/04/21 07:32:30;;;;;;;3.53;2.63;;;23.30;99.90;;;;;;5074512;28;20074;-51
2022/04/21 07:34:56;;;;;;;4.40;3.20;;;23.30;99.90;;;;;;5074115;28;20025;-51
2022/04/21 07:37:21;;;;;;;3.95;3.13;;;23.30;99.90;;;;;;5074040;28;20423;-49
2022/04/21 07:39:47;;;;;;;4.93;2.63;;;23.30;99.90;;;;;;5074100;28;20427;-49
2022/04/21 07:42:13;;;;;;;3.30;2.28;;;23.30;99.90;;;;;;5073902;28;20056;-49
2022/04/21 07:44:39;;;;;;;3.95;2.70;;;23.30;99.90;;;;;;5073914;28;20031;-50
2022/04/21 07:47:06;;;;;;;3.90;2.60;;;23.40;99.90;;;;;;5073888;28;20017;-50
2022/04/21 07:49:48;;;;;;;5.70;2.45;;;23.30;99.90;;;;;;5073959;28;20028;-50
2022/04/21 07:55:17;;;;;;;4.32;2.60;;;23.30;99.90;;;;;;5074065;28;20031;-50
2022/04/21 07:57:44;;;;;;;3.40;2.30;;;23.40;99.90;;;;;;5070964;28;20037;-50
2022/04/21 08:00:12;;;;;;;4.82;2.10;;;23.40;99.90;;;;;;5053393;28;20052;-50
2022/04/21 08:02:42;;;;;;;4.40;2.53;;;23.40;99.90;;;;;;5053526;28;20029;-51
2022/04/21 08:05:09;;;;;;;3.45;2.15;;;23.40;99.90;;;;;;5052904;28;20028;-51
2022/04/21 08:07:36;;;;;;;5.20;3.38;;;23.40;99.90;;;;;;5053812;28;20037;-50
2022/04/21 08:10:04;;;;;;;4.97;2.58;;;23.40;99.90;;;;;;5053797;28;20388;-50
2022/04/21 08:12:40;;;;;;;3.40;2.55;;;23.40;99.90;;;;;;5053470;28;20029;-49
2022/04/21 08:15:11;;;;;;;6.05;2.72;;;23.40;99.90;;;;;;5053469;28;20385;-49
2022/04/21 08:17:38;;;;;;;5.30;2.72;;;23.40;99.90;;;;;;5053349;28;20028;-50
2022/04/21 08:20:08;;;;;;;4.47;2.83;;;23.40;99.90;;;;;;5053424;28;20028;-49
2022/04/21 08:22:35;;;;;;;4.50;2.40;;;23.50;99.90;;;;;;5053455;28;20108;-50
2022/04/21 08:33:15;;;;;;;4.32;2.50;;;23.50;99.90;;;;;;5073133;28;20066;-50
2022/04/21 08:35:41;;;;;;;4.45;2.47;;;23.50;99.90;;;;;;5073015;28;20064;-50
2022/04/21 08:38:10;;;;;;;4.05;2.65;;;23.50;99.90;;;;;;5073056;28;20033;-50
2022/04/21 08:40:37;;;;;;;6.95;2.83;;;23.50;99.90;;;;;;5073020;28;20040;-50
2022/04/21 08:43:22;;;;;;;7.75;2.90;;;23.50;99.90;;;;;;5073149;28;20035;-50
2022/04/21 08:45:49;;;;;;;3.10;2.60;;;23.50;99.90;;;;;;5072949;28;20111;-50
2022/04/21 08:48:19;;;;;;;9.52;4.13;;;23.50;99.90;;;;;;5072797;28;20028;-50
2022/04/21 08:50:46;;;;;;;6.57;3.55;;;23.50;99.90;;;;;;5072698;28;20140;-50
2022/04/21 08:53:15;;;;;;;7.15;3.35;;;23.50;99.90;;;;;;5072743;28;20037;-50
2022/04/21 08:55:42;;;;;;;6.20;3.70;;;23.60;99.90;;;;;;5072571;28;20115;-51
2022/04/21 08:58:07;;;;;;;8.15;3.67;;;23.60;99.90;;;;;;5072217;28;20047;-55
2022/04/21 09:00:33;;;;;;;6.55;3.53;;;23.60;99.90;;;;;;5067651;28;20045;-51
2022/04/21 09:03:03;;;;;;;7.85;3.35;;;23.60;99.90;;;;;;5053103;28;20047;-50
2022/04/21 09:05:29;;;;;;;7.47;3.78;;;23.60;99.90;;;;;;5052454;28;20029;-50
2022/04/21 09:07:59;;;;;;;8.23;3.40;;;23.60;99.90;;;;;;5052476;28;20021;-50
2022/04/21 09:10:29;;;;;;;5.55;3.40;;;23.60;99.90;;;;;;5052394;28;20258;-50
2022/04/21 09:13:04;;;;;;;8.60;3.83;;;23.60;99.90;;;;;;5052403;28;20495;-52
2022/04/21 09:15:32;;;;;;;6.65;3.33;;;23.60;99.90;;;;;;5052261;28;20032;-50
2022/04/21 09:18:07;;;;;;;6.97;3.50;;;23.60;99.90;;;;;;5052163;28;20021;-50
2022/04/21 09:20:35;;;;;;;6.65;3.30;;;23.70;99.90;;;;;;5052060;28;20120;-50
2022/04/21 09:23:07;;;;;;;9.05;3.97;;;23.70;99.90;;;;;;5052145;28;20503;-50
2022/04/21 09:25:46;;;;;;;8.38;3.90;;;23.70;99.90;;;;;;5052048;28;20040;-50
2022/04/21 09:28:26;;;;;;;8.50;3.70;;;23.60;99.90;;;;;;5050522;28;20055;-51
2022/04/21 09:30:55;;;;;;;8.05;3.50;;;23.70;99.90;;;;;;5052142;28;20490;-50
2022/04/21 09:33:35;;;;;;;8.20;3.97;;;23.70;99.90;;;;;;5051945;28;20021;-51
2022/04/21 09:36:06;;;;;;;5.80;3.78;;;23.70;99.90;;;;;;5052058;28;20032;-50
2022/04/21 09:38:34;;;;;;;11.27;3.60;;;23.70;99.90;;;;;;5051695;28;20032;-50
2022/04/21 09:41:13;;;;;;;9.18;4.47;;;23.70;99.90;;;;;;5051742;28;20041;-50
2022/04/21 09:43:42;;;;;;;6.25;4.25;;;23.70;99.90;;;;;;5051811;28;20022;-50
2022/04/21 09:46:16;;;;;;;6.82;3.70;;;23.70;99.90;;;;;;5051836;28;20445;-50
2022/04/21 09:48:44;;;;;;;9.02;4.20;;;23.80;99.90;;;;;;5051609;28;20153;-50
2022/04/21 09:51:18;;;;;;;11.43;4.43;;;23.80;99.90;;;;;;5051760;28;20364;-50
2022/04/21 09:53:59;;;;;;;7.82;3.90;;;23.80;99.90;;;;;;5051522;28;20041;-50
2022/04/21 09:56:34;;;;;;;7.65;4.05;;;23.90;99.90;;;;;;5050249;28;20025;-51
2022/04/21 09:59:00;;;;;;;6.13;3.50;;;23.90;99.90;;;;;;5041966;28;20029;-50
2022/04/21 10:01:27;;;;;;;6.47;3.67;;;23.90;99.90;;;;;;5048491;28;20627;-50
2022/04/21 10:03:53;;;;;;;7.78;4.07;;;24.00;99.90;;;;;;5051262;28;20037;-51
2022/04/21 10:06:20;;;;;;;6.47;3.60;;;24.00;99.90;;;;;;5033405;28;20028;-50
2022/04/21 10:08:48;;;;;;;8.02;4.13;;;24.00;99.90;;;;;;5051349;28;20063;-51
2022/04/21 10:11:18;;;;;;;9.30;3.97;;;24.10;99.90;;;;;;5033517;28;20108;-51
2022/04/21 10:13:45;;;;;;;7.43;3.92;;;24.10;99.90;;;;;;5051271;28;20021;-49
2022/04/21 10:16:11;;;;;;;7.07;4.00;;;24.10;99.90;;;;;;5051291;28;20037;-51
2022/04/21 10:18:38;;;;;;;8.80;3.97;;;24.10;99.90;;;;;;5051219;28;20086;-50
2022/04/21 10:21:05;;;;;;;;;;;24.20;99.90;;;;;;5051635;28;20465;-49
2022/04/21 10:23:34;;;;;;;7.88;3.70;;;24.20;99.90;;;;;;5050988;28;19915;-49
2022/04/21 10:26:02;;;;;;;12.18;4.05;;;24.20;99.90;;;;;;5048742;28;20469;-49
2022/04/21 10:28:41;;;;;;;8.07;3.60;;;24.20;99.90;;;;;;5039436;28;20048;-50
2022/04/21 10:31:30;;;;;;;6.68;3.50;;;24.30;99.90;;;;;;5045965;28;20025;-50
2022/04/21 10:34:01;;;;;;;6.85;3.90;;;24.30;99.90;;;;;;5041640;28;20519;-49
2022/04/21 10:36:36;;;;;;;6.70;4.00;;;24.30;99.90;;;;;;5039919;28;20028;-51
2022/04/21 10:39:24;;;;;;;9.50;3.88;;;24.30;99.90;;;;;;5041533;28;20546;-51
2022/04/21 10:42:07;;;;;;;7.75;3.58;;;24.40;99.90;;;;;;5042422;28;20091;-50
2022/04/21 10:44:42;;;;;;;6.75;3.63;;;24.40;99.90;;;;;;5043323;28;20071;-51
2022/04/21 10:47:36;;;;;;;8.68;3.88;;;24.40;99.90;;;;;;5045777;28;20545;-51
2022/04/21 10:50:18;;;;;;;8.07;3.97;;;24.40;99.90;;;;;;5066910;28;20060;-51
2022/04/21 10:58:35;;;;;;;9.43;3.60;;;24.50;99.90;;;;;;5071481;28;20124;-51
2022/04/21 11:01:11;;;;;;;14.82;4.05;;;24.50;99.90;;;;;;5063705;28;20051;-50
2022/04/21 11:03:38;;;;;;;10.13;3.38;;;24.50;99.90;;;;;;5060501;28;20036;-50
2022/04/21 11:06:09;;;;;;;7.72;3.45;;;24.50;99.90;;;;;;5064668;28;20035;-52
2022/04/21 11:08:35;;;;;;;9.35;3.20;;;24.60;99.90;;;;;;5044750;28;20040;-52
2022/04/21 11:11:02;;;;;;;10.13;4.40;;;24.60;99.90;;;;;;5028119;28;20032;-51
2022/04/21 11:13:49;;;;;;;9.67;4.27;;;24.60;99.90;;;;;;5042379;28;20360;-52
2022/04/21 11:16:40;;;;;;;15.13;5.05;;;24.60;99.90;;;;;;5070244;28;20258;-51
2022/04/21 11:19:28;;;;;;;11.38;4.32;;;24.60;99.90;;;;;;5057840;28;20382;-49
2022/04/21 11:21:54;;;;;;;10.10;4.40;;;24.60;99.90;;;;;;5029142;28;20057;-49
2022/04/21 11:24:20;;;;;;;10.95;5.25;;;24.60;99.90;;;;;;5044261;28;20032;-48
2022/04/21 11:26:53;;;;;;;8.45;4.68;;;24.60;99.90;;;;;;5061926;28;20032;-50
2022/04/21 11:29:19;;;;;;;12.95;5.63;;;24.60;99.90;;;;;;5068865;28;20501;-50
2022/04/21 11:31:45;;;;;;;11.98;5.43;;;24.70;99.90;;;;;;5033233;28;20033;-49
2022/04/21 11:34:11;;;;;;;9.65;5.35;;;24.70;99.90;;;;;;5029210;28;20060;-49
2022/04/21 11:36:40;;;;;;;7.85;4.72;;;24.70;99.90;;;;;;5028988;28;20022;-49
2022/04/21 11:39:07;;;;;;;10.88;4.82;;;24.70;99.90;;;;;;5031688;28;20430;-49
2022/04/21 11:41:34;;;;;;;;;;;24.70;99.90;;;;;;5035750;28;20037;-50
2022/04/21 11:44:01;;;;;;;8.70;4.47;;;24.70;99.90;;;;;;5054475;28;19978;-48
2022/04/21 11:46:27;;;;;;;13.83;5.33;;;24.70;99.90;;;;;;5052863;28;20021;-49
2022/04/21 11:48:58;;;;;;;9.27;4.63;;;24.70;99.90;;;;;;5034217;28;20376;-50
2022/04/21 11:51:27;;;;;;;10.77;4.28;;;24.70;99.90;;;;;;5049301;28;20401;-51
2022/04/21 11:53:53;;;;;;;7.53;4.60;;;24.70;99.90;;;;;;5053867;28;20021;-51
2022/04/21 11:56:21;;;;;;;14.57;5.07;;;24.70;99.90;;;;;;5053826;28;20120;-53
2022/04/21 11:58:47;;;;;;;12.70;3.85;;;24.70;99.90;;;;;;5054006;28;20032;-52
2022/04/21 12:06:50;;;;;;;13.70;4.35;;;24.70;99.90;;;;;;5033929;28;20024;-52
2022/04/21 12:09:18;;;;;;;9.55;3.70;;;24.70;99.90;;;;;;5033825;28;20025;-53
2022/04/21 12:11:52;;;;;;;7.95;4.22;;;24.70;99.90;;;;;;5033809;28;20481;-53
2022/04/21 12:14:19;;;;;;;9.02;4.15;;;24.80;99.90;;;;;;5033672;28;20033;-52
2022/04/21 12:16:45;;;;;;;9.30;3.70;;;24.80;99.90;;;;;;5033659;28;20053;-52
2022/04/21 12:19:15;;;;;;;10.30;4.45;;;24.80;99.90;;;;;;5065449;28;20031;-52
2022/04/21 12:21:42;;;;;;;8.23;4.47;;;24.80;99.90;;;;;;5073362;28;20412;-53
2022/04/21 12:24:12;;;;;;;9.35;4.30;;;24.80;99.90;;;;;;5073310;28;20021;-50
2022/04/21 12:26:38;;;;;;;6.07;3.35;;;24.80;99.90;;;;;;5073329;28;20173;-50
2022/04/21 12:29:08;;;;;;;8.40;3.53;;;24.90;99.90;;;;;;5069575;28;20346;-51
2022/04/21 12:32:02;;;;;;;10.65;3.70;;;24.90;99.90;;;;;;5057809;28;20510;-52
2022/04/21 12:34:30;;;;;;;8.07;3.83;;;24.90;99.90;;;;;;5053273;28;20032;-53
2022/04/21 12:36:59;;;;;;;16.75;4.68;;;24.90;99.90;;;;;;5029295;28;20104;-52
2022/04/21 12:39:27;;;;;;;6.10;3.70;;;24.90;99.90;;;;;;5031743;28;20025;-52
2022/04/21 12:41:54;;;;;;;10.18;3.97;;;24.90;99.90;;;;;;5031498;28;20167;-51
2022/04/21 12:44:23;;;;;;;9.88;4.53;;;24.90;99.90;;;;;;5014387;28;20029;-52
2022/04/21 12:47:00;;;;;;;10.38;4.82;;;24.90;99.90;;;;;;5040762;28;20501;-53
2022/04/21 12:49:58;;;;;;;12.38;4.40;;;25.00;99.90;;;;;;5072611;28;20060;-53
2022/04/21 12:52:35;;;;;;;12.50;4.40;;;25.00;99.90;;;;;;5072861;28;20116;-53
2022/04/21 12:55:05;;;;;;;;;;;25.00;99.90;;;;;;5044332;28;20025;-53
2022/04/21 12:57:31;;;;;;;8.85;4.60;;;25.00;99.90;;;;;;5031470;28;19996;-54
2022/04/21 12:59:57;;;;;;;7.00;4.07;;;25.00;99.90;;;;;;5031008;28;20125;-53
2022/04/21 13:02:23;;;;;;;9.98;4.72;;;25.00;99.90;;;;;;5033314;28;20113;-53
2022/04/21 13:04:49;;;;;;;12.93;5.32;;;25.00;99.90;;;;;;5053741;28;20376;-53
2022/04/21 13:07:15;;;;;;;33.03;10.32;;;25.00;99.90;;;;;;5072447;28;20123;-51
2022/04/21 13:09:41;;;;;;;27.88;8.98;;;25.00;99.90;;;;;;5072173;28;20139;-52
2022/04/21 13:12:07;;;;;;;17.88;7.60;;;25.00;99.90;;;;;;5072210;28;20025;-52
2022/04/21 13:14:33;;;;;;;20.08;7.88;;;25.00;99.90;;;;;;5072214;28;20020;-51
2022/04/21 13:17:00;;;;;;;20.17;7.93;;;25.00;99.90;;;;;;5072454;28;20031;-54
2022/04/21 13:19:25;;;;;;;19.25;8.70;;;25.00;99.90;;;;;;5072091;28;20024;-52
2022/04/21 13:21:57;;;;;;;24.60;8.80;;;25.00;99.90;;;;;;5062004;28;20050;-49
2022/04/21 13:24:26;;;;;;;22.05;8.30;;;25.00;99.90;;;;;;5029702;28;20022;-50
2022/04/21 13:26:53;;;;;;;22.20;8.27;;;25.00;99.90;;;;;;5058075;28;20085;-49
2022/04/21 13:29:20;;;;;;;17.42;7.70;;;25.00;99.90;;;;;;5072252;28;20027;-50
2022/04/21 13:34:31;;;;;;;19.52;7.78;;;25.00;99.90;;;;;;5050513;28;20063;-49
2022/04/21 13:36:56;;;;;;;18.10;7.88;;;25.10;99.90;;;;;;5065178;28;20052;-52
2022/04/21 13:39:22;;;;;;;16.63;6.68;;;25.10;99.90;;;;;;5045448;28;20122;-52
2022/04/21 13:41:48;;;;;;;17.60;8.13;;;25.10;99.90;;;;;;5067135;28;20119;-50
2022/04/21 13:44:15;;;;;;;22.25;7.93;;;25.10;99.90;;;;;;5061781;28;20055;-50